Latest Weather Observations for Jabiru

IDD60801

Issued at 1:02 pm CST Tuesday 23 December 2014 (issued every 30 minutes, with the page automatically refreshed every 10 minutes)

About weather observations | Map of weather stations | Latest weather observations for NT | Other Formats
Station Details ID: 014198 Name: JABIRU AIRPORT Lat: -12.66 Lon: 132.89 Height: 26.5 m
Data from the previous 72 hours. | See also: Recent months at Jabiru
Date/Time
CST
Temp
°C
App
Temp
°C
Dew
Point
Rel
Hum
%
Delta-T
°C
Wind Press
QNH
hPa
Press
MSL
hPa
Rain
since 9 am
mm
Dir
 
Spd
km/h
Gust
km/h
Spd
kts
Gust
kts
23/01:00pm 34.0 37.0 22.7 51 7.8 NW 11 17 6 9 1007.6 1007.4 0.0
23/12:30pm 34.7 37.9 23.1 51 8.1 ENE 11 20 6 11 1008.4 1008.1 0.0
23/12:00pm 35.1 39.1 23.8 52 7.9 N 9 17 5 9 1009.0 1008.7 0.0
23/11:30am 33.9 38.2 23.3 54 7.4 WNW 6 11 3 6 1009.4 1009.1 0.0
23/11:00am 32.6 36.4 22.4 55 7.0 NW 6 9 3 5 1009.8 1009.5 0.0
23/10:30am 32.5 36.2 22.6 56 6.8 NW 7 13 4 7 1009.9 1009.6 0.0
23/10:00am 32.1 36.1 22.8 58 6.4 NNE 6 7 3 4 1010.2 1009.9 0.0
23/09:30am 30.9 35.8 24.3 68 4.6 NW 6 11 3 6 1010.3 1010.0 0.0
23/09:00am 30.0 34.7 23.9 70 4.2 W 6 7 3 4 1010.2 1009.9 0.2
23/08:30am 29.8 34.5 24.0 71 4.0 SSW 6 9 3 5 1010.0 1009.7 0.2
23/08:00am 29.2 33.6 24.5 76 3.3 WSW 9 11 5 6 1010.0 1009.7 0.2
23/07:30am 28.6 34.4 24.6 79 2.8 SSW 2 7 1 4 1009.6 1009.3 0.2
23/07:00am 27.8 32.7 24.4 82 2.4 NW 6 7 3 4 1009.5 1009.2 0.2
23/06:30am 27.2 32.2 24.5 85 1.9 ENE 6 7 3 4 1009.3 1009.0 0.2
23/06:00am 27.5 33.9 24.9 86 1.8 CALM 0 0 0 0 1008.7 1008.4 0.2
23/05:30am 27.6 33.9 24.8 85 2.0 CALM 0 0 0 0 1008.4 1008.1 0.2
23/05:00am 27.8 33.8 24.2 81 2.5 CALM 0 0 0 0 1008.4 1008.1 0.2
23/04:30am 28.0 33.4 23.8 78 2.9 SSW 2 7 1 4 1008.4 1008.1 0.2
23/04:00am 27.9 33.8 24.1 80 2.6 CALM 0 0 0 0 1008.1 1007.8 0.2
23/03:30am 28.0 33.1 24.6 82 2.4 S 6 7 3 4 1008.1 1007.8 0.2
23/03:00am 27.9 32.9 24.5 82 2.4 SSW 6 7 3 4 1008.1 1007.8 0.2
23/02:30am 28.0 34.1 24.4 81 2.5 CALM 0 0 0 0 1007.7 1007.5 0.2
23/02:00am 28.1 33.5 23.9 78 2.9 W 2 6 1 3 1007.6 1007.4 0.2
23/01:30am 28.2 33.1 23.6 76 3.2 NE 4 7 2 4 1007.5 1007.3 0.2
23/01:00am 28.0 32.7 24.0 79 2.8 NE 6 7 3 4 1007.7 1007.5 0.2
23/12:30am 28.2 34.2 24.2 79 2.8 CALM 0 0 0 0 1008.3 1008.0 0.2
23/12:00am 28.6 34.3 24.4 78 2.9 W 2 6 1 3 1008.6 1008.3 0.2
 
Date/Time
CST
Temp
°C
App
Temp
°C
Dew
Point
Rel
Hum
%
Delta-T
°C
Wind Press
QNH
hPa
Press
MSL
hPa
Rain
since 9 am
mm
Dir
 
Spd
km/h
Gust
km/h
Spd
kts
Gust
kts
22/11:30pm 28.9 33.5 24.2 76 3.3 NNW 7 9 4 5 1008.3 1008.0 0.2
22/11:00pm 28.8 33.6 24.1 76 3.3 N 6 7 3 4 1008.3 1008.0 0.2
22/10:30pm 29.4 34.1 24.3 74 3.6 WNW 7 9 4 5 1008.2 1007.9 0.2
22/10:00pm 29.5 34.2 23.9 72 3.9 NNW 6 9 3 5 1008.1 1007.8 0.2
22/09:30pm 30.1 34.6 24.0 70 4.2 NW 7 11 4 6 1007.5 1007.3 0.2
22/09:00pm 30.7 35.6 24.4 69 4.4 WNW 6 7 3 4 1007.4 1007.2 0.2
22/08:30pm 30.9 35.3 23.8 66 4.9 WNW 7 11 4 6 1006.9 1006.7 0.2
22/08:00pm 31.2 34.5 23.8 64 5.1 W 13 17 7 9 1006.5 1006.3 0.2
22/07:30pm 31.5 34.3 23.6 63 5.5 WNW 15 20 8 11 1006.0 1005.8 0.2
22/07:00pm 31.8 34.6 23.6 62 5.7 WNW 15 20 8 11 1005.4 1005.2 0.2
22/06:30pm 32.7 35.3 23.9 60 6.2 WNW 17 22 9 12 1005.1 1004.9 0.2
22/06:00pm 33.4 36.4 24.6 60 6.2 WNW 17 24 9 13 1004.6 1004.4 0.2
22/05:30pm 35.9 37.4 20.6 41 10.3 NNW 13 20 7 11 1004.6 1004.4 0.0
22/05:00pm 36.5 38.5 20.7 39 10.7 NNW 11 17 6 9 1004.5 1004.3 0.0
22/04:30pm 36.2 38.8 20.0 38 10.9 NE 6 15 3 8 1004.4 1004.2 0.0
22/04:00pm 36.2 38.4 20.4 39 10.6 NW 9 13 5 7 1004.8 1004.6 0.0
22/03:30pm 35.3 37.5 21.2 44 9.6 N 11 15 6 8 1005.3 1005.1 0.0
22/03:00pm 36.3 38.6 21.3 41 10.2 SW 11 15 6 8 1005.6 1005.4 0.0
22/02:30pm 35.1 38.0 22.4 47 8.8 W 11 17 6 9 1006.2 1006.0 0.0
22/02:00pm 34.7 37.8 22.1 48 8.6 WNW 9 17 5 9 1006.5 1006.3 0.0
22/01:30pm 34.7 38.1 22.7 49 8.3 NW 9 13 5 7 1007.1 1006.9 0.0
22/01:00pm 34.4 38.2 22.8 51 8.0 SSW 7 13 4 7 1007.4 1007.2 0.0
22/12:30pm 33.1 36.9 23.4 56 6.7 NW 9 15 5 8 1008.1 1007.8 0.0
22/12:00pm 33.0 37.1 23.3 56 6.7 W 7 11 4 6 1008.4 1008.1 0.0
22/11:30am 32.4 36.9 23.9 61 5.9 W 7 13 4 7 1008.8 1008.5 0.0
22/11:00am 32.2 37.1 24.3 63 5.5 WSW 6 13 3 7 1009.3 1009.0 0.0
22/10:30am 31.1 35.9 24.2 66 4.8 WSW 6 9 3 5 1009.5 1009.2 0.0
22/10:00am 30.7 35.8 24.1 68 4.6 SW 4 7 2 4 1009.8 1009.5 0.0
22/09:30am 30.0 34.5 24.6 73 3.8 W 9 13 5 7 1009.7 1009.4 0.0
22/09:00am 29.3 33.9 24.8 77 3.2 SW 9 13 5 7 1009.8 1009.5 0.0
22/08:30am 29.0 35.0 24.8 78 2.9 S 2 7 1 4 1009.7 1009.4 0.0
22/08:00am 28.6 33.5 24.4 78 2.9 NW 6 7 3 4 1009.7 1009.4 0.0
22/07:30am 28.4 33.2 24.2 78 2.9 NW 6 9 3 5 1009.5 1009.2 0.0
22/07:00am 27.8 33.6 24.0 80 2.6 CALM 0 0 0 0 1009.2 1008.9 0.0
22/06:30am 27.5 32.0 23.9 81 2.5 NNW 7 9 4 5 1008.6 1008.3 0.0
22/06:00am 27.8 32.3 24.0 80 2.6 NW 7 11 4 6 1008.3 1008.0 0.0
22/05:30am 27.6 32.3 25.0 86 1.8 WSW 9 11 5 6 1007.8 1007.6 0.0
22/05:00am 27.6 33.8 24.6 84 2.1 CALM 0 0 0 0 1007.4 1007.2 0.0
22/04:30am 27.6 33.8 24.6 84 2.1 CALM 0 0 0 0 1007.1 1006.9 0.0
22/04:00am 27.8 34.0 24.6 83 2.2 CALM 0 0 0 0 1007.1 1006.9 0.0
22/03:30am 27.6 32.7 24.6 84 2.1 E 6 7 3 4 1007.1 1006.9 0.0
22/03:00am 27.2 32.2 24.5 85 1.9 ESE 6 7 3 4 1007.1 1006.9 0.0
22/02:30am 27.1 31.4 24.2 84 2.0 E 9 11 5 6 1007.4 1007.2 0.0
22/02:00am 27.3 31.9 24.2 83 2.1 E 7 9 4 5 1007.7 1007.5 0.0
22/01:30am 27.1 31.2 24.0 83 2.1 ESE 9 13 5 7 1008.1 1007.8 0.0
22/01:00am 26.9 31.2 23.6 82 2.3 E 7 9 4 5 1007.8 1007.6 0.0
22/12:30am 26.7 30.5 23.4 82 2.3 ESE 9 11 5 6 1007.9 1007.7 0.0
22/12:00am 26.7 30.5 23.4 82 2.3 E 9 13 5 7 1008.3 1008.0 0.0
 
Date/Time
CST
Temp
°C
App
Temp
°C
Dew
Point
Rel
Hum
%
Delta-T
°C
Wind Press
QNH
hPa
Press
MSL
hPa
Rain
since 9 am
mm
Dir
 
Spd
km/h
Gust
km/h
Spd
kts
Gust
kts
21/11:30pm 26.8 30.6 23.5 82 2.3 E 9 13 5 7 1008.6 1008.3 0.0
21/11:00pm 27.1 31.4 23.6 81 2.4 ESE 7 9 4 5 1008.6 1008.3 0.0
21/10:30pm 27.8 31.9 24.0 80 2.6 ESE 9 13 5 7 1008.3 1008.0 0.0
21/10:00pm 29.0 33.9 24.6 77 3.1 NE 7 11 4 6 1007.8 1007.6 0.0
21/09:30pm 29.7 34.1 23.4 69 4.3 WSW 6 9 3 5 1007.5 1007.3 0.0
21/09:00pm 29.7 34.3 24.1 72 3.9 SSW 7 13 4 7 1007.6 1007.4 0.0
21/08:30pm 29.6 33.8 23.1 68 4.5 NW 6 9 3 5 1006.8 1006.6 0.0
21/08:00pm 29.7 33.2 23.6 69 4.2 WSW 11 13 6 7 1006.3 1006.1 0.0
21/07:30pm 31.0 34.7 23.9 66 4.9 W 11 15 6 8 1005.5 1005.3 0.0
21/07:00pm 31.1 32.9 24.2 66 4.8 WNW 22 33 12 18 1005.0 1004.8 0.0
21/06:30pm 33.4 37.1 24.6 60 6.2 WNW 13 19 7 10 1004.4 1004.2 0.0
21/06:00pm 34.2 38.3 24.5 57 6.9 WSW 11 15 6 8 1004.1 1003.9 0.0
21/05:30pm 34.5 38.7 24.7 56 6.9 WSW 11 15 6 8 1004.0 1003.8 0.0
21/05:00pm 34.5 38.5 24.4 55 7.1 WSW 11 17 6 9 1003.9 1003.7 0.0
21/04:30pm 34.6 37.9 24.5 55 7.1 WSW 15 20 8 11 1004.1 1003.9 0.0
21/04:00pm 34.5 38.9 25.0 57 6.7 SW 11 20 6 11 1004.1 1003.9 0.0
21/03:30pm 34.5 38.5 25.0 57 6.8 SW 13 20 7 11 1004.5 1004.3 0.0
21/03:00pm 35.2 38.5 21.8 45 9.2 NW 7 11 4 6 1005.4 1005.2 0.0
21/02:30pm 35.0 38.9 23.0 49 8.3 WNW 7 15 4 8 1006.1 1005.9 0.0
21/02:00pm 34.6 37.8 22.3 48 8.4 N 9 15 5 8 1006.5 1006.3 0.0
21/01:30pm 34.4 37.7 22.5 50 8.2 NNW 9 17 5 9 1007.0 1006.8 0.0
21/01:00pm 33.8 38.4 24.1 57 6.8 N 7 13 4 7 1007.4 1007.2 0.0
21/12:30pm 33.0 36.7 23.9 59 6.4 NNE 11 15 6 8 1007.9 1007.7 0.0
21/12:00pm 32.4 36.5 23.9 61 5.9 NNW 9 13 5 7 1008.7 1008.4 0.0
21/11:30am 32.2 36.1 24.3 63 5.5 NW 11 17 6 9 1009.2 1008.9 0.0
21/11:00am 31.7 36.2 24.0 63 5.4 NNW 7 13 4 7 1009.7 1009.4 0.0
21/10:30am 31.5 36.5 23.9 64 5.3 WNW 4 7 2 4 1010.3 1010.0 0.0
21/10:00am 30.8 35.0 23.5 65 5.0 NE 7 11 4 6 1010.4 1010.1 0.0
21/09:30am 28.6 33.1 24.6 79 2.8 N 9 13 5 7 1010.4 1010.1 0.0
21/09:00am 27.1 31.7 24.2 84 2.0 NE 7 9 4 5 1010.7 1010.4 32.6
21/08:30am 25.7 29.7 23.7 89 1.4 S 9 17 5 9 1011.5 1011.3 32.6
21/08:00am 25.2 28.3 23.6 91 1.1 S 13 22 7 12 1011.3 1011.0 32.6
21/07:30am 25.4 29.7 24.2 93 0.8 SSW 9 15 5 8 1010.4 1010.1 32.6
21/07:00am 24.8 28.7 23.6 93 0.8 SW 9 13 5 7 1010.1 1009.8 32.6
21/06:30am 24.5 28.6 23.3 93 0.8 S 7 11 4 6 1009.3 1009.0 32.4
21/06:00am 24.1 25.7 22.9 93 0.8 NNW 19 28 10 15 1008.4 1008.1 32.2
21/05:30am 27.7 33.2 25.3 87 1.7 NW 6 13 3 7 1007.5 1007.3 1.0
21/05:00am 28.1 33.4 25.3 85 2.0 N 7 13 4 7 1007.2 1007.0 0.0
21/04:30am 28.5 33.9 25.1 82 2.4 N 6 7 3 4 1007.3 1007.1 0.0
21/04:00am 28.7 34.2 25.3 82 2.4 NNW 6 9 3 5 1007.3 1007.1 0.0
21/03:30am 29.0 34.8 25.2 80 2.7 NW 4 7 2 4 1007.0 1006.8 0.0
21/03:00am 28.9 35.0 25.1 80 2.7 NE 2 7 1 4 1007.1 1006.9 0.0
21/02:30am 29.2 35.7 25.0 78 3.0 CALM 0 0 0 0 1007.3 1007.1 0.0
21/02:00am 29.3 35.6 25.3 79 2.8 N 2 6 1 3 1007.7 1007.5 0.0
21/01:30am 29.3 34.7 25.1 78 3.0 N 6 7 3 4 1007.9 1007.7 0.0
21/01:00am 29.5 34.7 24.8 76 3.3 NNW 6 7 3 4 1008.3 1008.0 0.0
21/12:30am 29.5 35.5 24.8 76 3.3 NE 2 6 1 3 1008.7 1008.4 0.0
21/12:00am 29.2 34.0 24.5 76 3.3 NE 7 9 4 5 1008.8 1008.5 0.0
 
Date/Time
CST
Temp
°C
App
Temp
°C
Dew
Point
Rel
Hum
%
Delta-T
°C
Wind Press
QNH
hPa
Press
MSL
hPa
Rain
since 9 am
mm
Dir
 
Spd
km/h
Gust
km/h
Spd
kts
Gust
kts
20/11:30pm 29.5 34.4 24.6 75 3.4 NNW 7 9 4 5 1008.8 1008.5 0.0
20/11:00pm 29.6 34.6 24.5 74 3.6 N 6 7 3 4 1008.9 1008.6 0.0
20/10:30pm 29.6 34.4 24.5 74 3.6 NNE 7 11 4 6 1008.5 1008.2 0.0
20/10:00pm 30.1 34.4 24.3 71 4.0 NE 9 13 5 7 1008.2 1007.9 0.0
20/09:30pm 30.7 34.8 23.9 67 4.7 NW 9 13 5 7 1007.5 1007.3 0.0
20/09:00pm 30.9 35.1 24.1 67 4.7 N 9 13 5 7 1007.2 1007.0 0.0
20/08:30pm 31.3 35.1 23.4 63 5.5 NNE 9 11 5 6 1007.0 1006.8 0.0
20/08:00pm 31.8 35.8 23.1 60 6.0 ESE 7 11 4 6 1006.8 1006.6 0.0
20/07:30pm 31.1 34.3 22.4 60 5.9 E 9 15 5 8 1006.3 1006.1 0.0
20/07:00pm 32.0 34.7 22.1 55 6.7 ENE 11 15 6 8 1005.1 1004.9 0.0
20/06:30pm 32.4 36.0 23.1 58 6.4 ENE 9 15 5 8 1004.6 1004.4 0.0
20/06:00pm 35.0 38.4 22.7 49 8.5 NNE 9 11 5 6 1004.7 1004.5 0.0
20/05:30pm 35.9 39.4 22.1 44 9.5 N 7 9 4 5 1004.3 1004.1 0.0
20/05:00pm 35.9 38.9 21.3 42 9.9 N 7 9 4 5 1004.3 1004.1 0.0
20/04:30pm 36.5 39.6 21.5 41 10.3 NNE 7 11 4 6 1004.1 1003.9 0.0
20/04:00pm 36.9 40.2 21.5 41 10.5 SW 6 11 3 6 1004.4 1004.2 0.0
20/03:30pm 36.4 39.5 21.4 41 10.3 NNE 7 13 4 7 1004.8 1004.6 0.0
20/03:00pm 36.1 39.3 22.3 45 9.5 SW 9 15 5 8 1005.2 1005.0 0.0
20/02:30pm 34.8 38.5 23.2 51 8.1 WNW 9 15 5 8 1005.8 1005.6 0.0
20/02:00pm 34.5 38.4 22.9 51 8.0 WSW 7 13 4 7 1006.4 1006.2 0.0
20/01:30pm 34.7 38.7 22.7 49 8.3 SSE 6 13 3 7 1007.0 1006.8 0.0

Other Formats:

Comma delimited format used in spreadsheet applications
http://www.bom.gov.au/fwo/IDD60801/IDD60801.94137.axf

JavaScript Object Notation format (JSON) in row-major order
http://www.bom.gov.au/fwo/IDD60801/IDD60801.94137.json